Time;durP1;ratioP1;P1;durP2;ratioP2;P2;SDS_P1;SDS_P2;PMS_P1;PMS_P2;Temp;Humidity;BMP_temperature;BMP_pressure;BME280_temperature;BME280_humidity;BME280_pressure;Samples;Min_cycle;Max_cycle;Signal;HPM_P1;HPM_P2
2023/08/14 03:01:22;;;;;;;1.38;1.00;;;23.20;59.00;;;;;;5474979;23;45933;-82
2023/08/14 03:03:48;;;;;;;1.02;0.93;;;23.20;59.00;;;;;;4866860;28;45656;-80
2023/08/14 03:06:13;;;;;;;1.08;0.85;;;23.20;59.00;;;;;;4863999;28;45514;-80
2023/08/14 03:08:39;;;;;;;2.03;1.00;;;23.20;59.00;;;;;;4883257;28;45351;-80
2023/08/14 03:11:04;;;;;;;1.25;0.93;;;23.20;59.00;;;;;;4879048;28;45639;-81
2023/08/14 03:13:30;;;;;;;1.20;1.10;;;23.20;59.00;;;;;;4853510;28;47476;-84
2023/08/14 03:15:55;;;;;;;1.13;1.02;;;23.20;59.00;;;;;;4873970;28;45095;-84
2023/08/14 03:18:21;;;;;;;1.00;0.80;;;23.20;59.00;;;;;;4878007;28;45033;-84
2023/08/14 03:20:47;;;;;;;0.90;0.90;;;23.20;59.00;;;;;;4890668;28;45821;-81
2023/08/14 03:23:12;;;;;;;1.95;0.88;;;23.20;59.00;;;;;;4868262;28;47859;-83
2023/08/14 03:25:38;;;;;;;1.00;0.90;;;23.20;59.00;;;;;;4851802;28;45535;-81
2023/08/14 03:28:04;;;;;;;1.10;0.90;;;23.20;59.00;;;;;;4855598;28;45278;-83
2023/08/14 03:30:30;;;;;;;2.15;1.08;;;23.20;59.00;;;;;;4870656;28;44909;-80
2023/08/14 03:32:55;;;;;;;0.80;0.80;;;23.30;59.00;;;;;;4879357;28;47213;-85
2023/08/14 03:35:21;;;;;;;1.05;1.00;;;23.20;59.00;;;;;;4865169;28;45213;-85
2023/08/14 03:37:46;;;;;;;1.25;0.98;;;23.20;59.00;;;;;;4865994;28;45611;-80
2023/08/14 03:40:14;;;;;;;0.93;0.90;;;23.20;59.00;;;;;;4880511;28;45998;-79
2023/08/14 03:42:40;;;;;;;1.35;1.10;;;23.20;59.00;;;;;;4885870;28;45944;-81
2023/08/14 03:45:07;;;;;;;1.00;0.98;;;23.20;59.00;;;;;;4881529;28;44918;-80
2023/08/14 03:47:32;;;;;;;0.65;0.65;;;23.30;59.60;;;;;;4873388;28;45269;-84
2023/08/14 03:49:58;;;;;;;0.88;0.85;;;23.20;59.00;;;;;;4917816;28;45246;-83
2023/08/14 03:52:23;;;;;;;1.23;1.10;;;23.20;59.00;;;;;;4875103;28;47053;-83
2023/08/14 03:54:49;;;;;;;1.63;1.20;;;23.20;59.00;;;;;;4885849;28;45179;-82
2023/08/14 03:57:15;;;;;;;0.95;0.88;;;23.20;59.00;;;;;;4879759;28;44824;-81
2023/08/14 03:59:40;;;;;;;1.20;1.10;;;23.20;59.00;;;;;;4871250;29;45421;-79
2023/08/14 04:02:06;;;;;;;1.00;0.90;;;23.20;59.00;;;;;;4907170;28;45384;-79
2023/08/14 04:04:31;;;;;;;1.30;0.93;;;23.20;59.00;;;;;;4898198;28;45282;-83
2023/08/14 04:06:58;;;;;;;0.82;0.82;;;23.20;59.00;;;;;;4892026;28;45643;-82
2023/08/14 04:09:23;;;;;;;0.95;0.90;;;23.30;59.00;;;;;;4895796;28;45424;-82
2023/08/14 04:11:49;;;;;;;0.82;0.82;;;23.20;59.00;;;;;;4865816;28;46322;-80
2023/08/14 04:14:15;;;;;;;1.50;1.05;;;23.20;59.00;;;;;;4895950;28;45809;-80
2023/08/14 04:16:43;;;;;;;1.25;0.90;;;23.30;59.00;;;;;;4889093;28;45881;-81
2023/08/14 04:19:14;;;;;;;0.68;0.68;;;23.20;59.00;;;;;;4894891;28;45398;-84
2023/08/14 04:21:40;;;;;;;1.10;1.00;;;23.30;59.00;;;;;;4878159;28;45471;-79
2023/08/14 04:24:06;;;;;;;1.25;0.90;;;23.20;59.00;;;;;;4900557;28;45257;-81
2023/08/14 04:26:32;;;;;;;0.80;0.80;;;23.20;59.00;;;;;;4875339;28;45361;-80
2023/08/14 04:28:58;;;;;;;1.10;1.00;;;23.20;59.00;;;;;;4891360;28;45533;-83
2023/08/14 04:31:23;;;;;;;1.17;1.00;;;23.20;59.00;;;;;;4853231;28;47396;-81
2023/08/14 04:33:49;;;;;;;1.67;0.88;;;23.30;59.00;;;;;;4882624;28;45339;-80
2023/08/14 04:36:14;;;;;;;1.30;1.20;;;23.30;59.00;;;;;;4885441;28;45295;-80
2023/08/14 04:38:40;;;;;;;1.75;0.90;;;23.20;59.00;;;;;;4859280;28;45275;-80
2023/08/14 04:41:05;;;;;;;1.40;1.30;;;23.20;59.00;;;;;;4886996;28;45398;-82
2023/08/14 04:43:31;;;;;;;0.98;0.90;;;23.20;59.00;;;;;;4855919;28;45553;-80
2023/08/14 04:45:57;;;;;;;0.88;0.88;;;23.20;59.00;;;;;;4879144;28;45250;-83
2023/08/14 04:48:23;;;;;;;1.00;0.90;;;23.20;59.00;;;;;;4880093;28;45872;-83
2023/08/14 04:50:49;;;;;;;0.80;0.80;;;23.30;59.00;;;;;;4876220;28;45535;-82
2023/08/14 04:53:14;;;;;;;0.88;0.82;;;23.30;59.00;;;;;;4900273;28;45017;-84
2023/08/14 04:55:40;;;;;;;1.20;0.93;;;23.30;59.00;;;;;;4872526;28;46354;-81
2023/08/14 04:58:05;;;;;;;0.80;0.80;;;23.20;59.00;;;;;;4878616;28;45743;-83
2023/08/14 05:00:31;;;;;;;1.05;0.77;;;23.20;59.00;;;;;;4858465;28;47183;-81
2023/08/14 05:02:56;;;;;;;1.23;1.00;;;23.30;59.10;;;;;;4867423;28;44654;-84
2023/08/14 05:05:22;;;;;;;0.85;0.80;;;23.20;59.00;;;;;;4887392;28;45640;-82
2023/08/14 05:07:47;;;;;;;1.17;1.00;;;23.20;59.00;;;;;;4885204;28;44847;-83
2023/08/14 05:10:13;;;;;;;1.10;1.00;;;23.20;59.00;;;;;;4863897;28;45619;-85
2023/08/14 05:12:38;;;;;;;1.02;0.90;;;23.20;59.00;;;;;;4879662;28;45508;-83
2023/08/14 05:15:05;;;;;;;1.55;1.02;;;23.20;59.00;;;;;;4872400;28;45555;-84
2023/08/14 05:17:31;;;;;;;1.00;0.90;;;23.20;59.00;;;;;;4878907;28;45041;-84
2023/08/14 05:19:57;;;;;;;0.90;0.90;;;23.20;59.00;;;;;;4863391;29;45319;-83
2023/08/14 05:22:22;;;;;;;1.17;1.08;;;23.20;59.00;;;;;;4891385;28;45592;-83
2023/08/14 05:24:48;;;;;;;0.88;0.85;;;23.20;59.00;;;;;;4870089;28;45532;-81
2023/08/14 05:27:13;;;;;;;1.38;1.20;;;23.20;59.00;;;;;;4879090;28;45604;-83
2023/08/14 05:29:39;;;;;;;1.23;0.93;;;23.20;59.00;;;;;;4906525;28;45435;-80
2023/08/14 05:32:05;;;;;;;1.52;1.00;;;23.20;59.00;;;;;;4877658;28;45012;-84
2023/08/14 05:34:31;;;;;;;1.08;1.00;;;23.20;59.00;;;;;;4867038;28;45312;-84
2023/08/14 05:36:56;;;;;;;1.77;0.90;;;23.20;59.00;;;;;;4894754;28;45628;-82
2023/08/14 05:39:22;;;;;;;0.93;0.90;;;23.20;59.00;;;;;;4878524;28;47095;-83
2023/08/14 05:41:49;;;;;;;0.80;0.80;;;23.20;59.00;;;;;;4870942;28;46047;-82
2023/08/14 05:44:15;;;;;;;1.95;0.90;;;23.20;59.00;;;;;;4885606;28;45143;-83
2023/08/14 05:46:42;;;;;;;1.10;1.00;;;23.20;59.00;;;;;;4862504;28;45464;-84
2023/08/14 05:49:08;;;;;;;0.90;0.90;;;23.20;59.00;;;;;;4896689;28;45557;-83
2023/08/14 05:51:33;;;;;;;1.20;0.90;;;23.20;59.00;;;;;;4897992;28;45097;-83
2023/08/14 05:53:59;;;;;;;1.10;1.00;;;23.20;59.00;;;;;;4866551;28;45578;-84
2023/08/14 05:56:24;;;;;;;1.10;1.00;;;23.20;59.00;;;;;;4895124;28;45422;-83
2023/08/14 05:58:50;;;;;;;1.10;1.00;;;23.20;59.00;;;;;;4885291;28;45792;-83
2023/08/14 06:01:16;;;;;;;0.93;0.82;;;23.20;59.10;;;;;;4870162;28;45092;-84
2023/08/14 06:03:42;;;;;;;0.93;0.93;;;23.20;59.00;;;;;;4877171;28;45032;-85
2023/08/14 06:06:08;;;;;;;0.90;0.90;;;23.20;59.00;;;;;;4869138;28;45695;-82
2023/08/14 06:08:34;;;;;;;0.80;0.80;;;23.20;59.00;;;;;;4880482;28;45599;-82
2023/08/14 06:11:01;;;;;;;1.30;1.08;;;23.20;59.00;;;;;;4863648;28;45359;-81
2023/08/14 06:13:27;;;;;;;1.38;1.00;;;23.20;59.10;;;;;;4883007;29;45199;-82
2023/08/14 06:15:52;;;;;;;1.05;0.90;;;23.20;59.10;;;;;;4862769;28;45281;-83
2023/08/14 06:18:18;;;;;;;1.30;1.05;;;23.20;59.10;;;;;;4891552;28;48672;-81
2023/08/14 06:20:44;;;;;;;1.35;1.25;;;23.20;59.10;;;;;;4863190;28;45445;-82
2023/08/14 06:23:09;;;;;;;1.48;1.20;;;23.20;59.10;;;;;;4888596;28;45397;-82
2023/08/14 06:25:35;;;;;;;0.88;0.88;;;23.20;59.10;;;;;;4860600;28;45518;-81
2023/08/14 06:28:00;;;;;;;1.10;1.00;;;23.20;59.10;;;;;;4910999;28;45538;-82
2023/08/14 06:30:26;;;;;;;1.20;1.08;;;23.20;59.10;;;;;;4910144;28;45307;-82
2023/08/14 06:32:52;;;;;;;1.20;1.10;;;23.20;59.70;;;;;;4893455;28;45387;-84
2023/08/14 06:35:18;;;;;;;1.42;1.00;;;23.20;59.10;;;;;;4869149;29;45050;-82
2023/08/14 06:37:43;;;;;;;1.50;1.20;;;23.20;59.10;;;;;;4898953;28;45330;-81
2023/08/14 06:40:09;;;;;;;1.33;1.23;;;23.20;59.10;;;;;;4884351;29;45200;-86
2023/08/14 06:42:35;;;;;;;2.78;1.40;;;23.20;59.10;;;;;;4867020;28;44797;-83
2023/08/14 06:45:01;;;;;;;1.40;0.93;;;23.20;59.10;;;;;;4869423;28;44900;-82
2023/08/14 06:47:26;;;;;;;1.38;1.13;;;23.20;59.10;;;;;;4860185;28;47006;-82
2023/08/14 06:49:52;;;;;;;1.20;1.10;;;23.20;59.10;;;;;;4884864;28;45706;-81
2023/08/14 06:52:17;;;;;;;1.25;1.15;;;23.20;59.10;;;;;;4881398;29;44991;-82
2023/08/14 06:54:43;;;;;;;1.35;1.00;;;23.20;59.10;;;;;;4899001;28;45162;-82
2023/08/14 06:57:08;;;;;;;1.27;1.17;;;23.20;59.10;;;;;;4878596;28;45499;-83
2023/08/14 06:59:34;;;;;;;1.00;0.90;;;23.30;59.10;;;;;;4881769;28;44673;-82
2023/08/14 07:02:01;;;;;;;1.98;1.23;;;23.20;59.10;;;;;;4875401;28;45065;-82
2023/08/14 07:04:26;;;;;;;1.13;0.98;;;23.20;59.10;;;;;;4882189;28;45342;-81
2023/08/14 07:06:52;;;;;;;1.20;1.10;;;23.20;59.10;;;;;;4861477;28;47031;-81
2023/08/14 07:09:17;;;;;;;1.10;1.00;;;23.20;59.10;;;;;;4897033;28;45342;-82
2023/08/14 07:11:43;;;;;;;1.20;1.10;;;23.20;59.10;;;;;;4882402;28;45025;-82
2023/08/14 07:14:09;;;;;;;1.00;0.90;;;23.20;59.10;;;;;;4867324;28;45664;-82
2023/08/14 07:16:34;;;;;;;1.38;1.27;;;23.20;59.10;;;;;;4879212;28;46255;-81
2023/08/14 07:19:00;;;;;;;1.48;0.95;;;23.20;59.10;;;;;;4902575;28;45627;-83
2023/08/14 07:21:25;;;;;;;1.10;1.00;;;23.20;59.10;;;;;;4898345;28;45363;-83
2023/08/14 07:23:51;;;;;;;0.90;0.90;;;23.20;59.10;;;;;;4868988;28;45867;-84
2023/08/14 07:26:17;;;;;;;2.05;1.15;;;23.20;59.10;;;;;;4899853;28;46465;-83
2023/08/14 07:28:42;;;;;;;1.23;1.10;;;23.20;59.10;;;;;;4900343;28;45455;-82
2023/08/14 07:31:08;;;;;;;0.85;0.80;;;23.20;59.10;;;;;;4864391;29;44839;-83
2023/08/14 07:33:34;;;;;;;1.15;1.00;;;23.20;59.10;;;;;;4871037;28;45404;-82
2023/08/14 07:36:00;;;;;;;1.27;0.98;;;23.20;59.10;;;;;;4881251;28;46033;-82
2023/08/14 07:38:25;;;;;;;0.95;0.88;;;23.20;59.10;;;;;;4899264;28;45563;-84
2023/08/14 07:40:52;;;;;;;1.30;1.20;;;23.20;59.10;;;;;;4863195;28;45053;-82
2023/08/14 07:43:17;;;;;;;1.40;1.30;;;23.20;59.10;;;;;;4883956;28;45129;-82
2023/08/14 07:45:43;;;;;;;1.10;1.00;;;23.30;59.10;;;;;;4864321;28;46976;-84
2023/08/14 07:48:09;;;;;;;1.15;1.00;;;23.20;59.10;;;;;;4866435;28;45132;-82
2023/08/14 07:50:35;;;;;;;1.10;1.00;;;23.20;59.10;;;;;;4864417;29;44732;-82
2023/08/14 07:53:01;;;;;;;1.42;1.00;;;23.20;59.10;;;;;;4893511;28;45327;-83
2023/08/14 07:55:30;;;;;;;1.23;1.02;;;23.20;59.10;;;;;;4895257;28;46627;-82
2023/08/14 07:57:55;;;;;;;1.10;1.00;;;23.20;59.10;;;;;;4886324;28;45673;-82
2023/08/14 08:00:21;;;;;;;0.70;0.70;;;23.20;59.10;;;;;;4893968;28;45660;-82
2023/08/14 08:02:47;;;;;;;1.23;1.08;;;23.20;59.10;;;;;;4877196;28;45236;-84
2023/08/14 08:05:13;;;;;;;0.82;0.80;;;23.20;59.10;;;;;;4880330;28;47147;-85
2023/08/14 08:07:38;;;;;;;1.02;0.88;;;23.20;59.10;;;;;;4880981;28;44942;-83
2023/08/14 08:10:05;;;;;;;1.10;1.00;;;23.20;59.10;;;;;;4894648;28;45444;-84
2023/08/14 08:12:32;;;;;;;1.70;1.15;;;23.30;59.10;;;;;;4882285;28;45905;-84
2023/08/14 08:14:58;;;;;;;0.98;0.88;;;23.20;59.10;;;;;;4876454;28;45293;-82
2023/08/14 08:17:23;;;;;;;1.30;1.20;;;23.20;59.10;;;;;;4892440;28;45730;-82
2023/08/14 08:19:50;;;;;;;0.80;0.80;;;23.20;59.10;;;;;;4893238;28;44856;-84
2023/08/14 08:22:15;;;;;;;0.77;0.77;;;23.30;59.10;;;;;;4897456;28;45313;-83
2023/08/14 08:24:41;;;;;;;1.90;1.00;;;23.20;59.10;;;;;;4888377;28;46965;-88
2023/08/14 08:27:07;;;;;;;0.93;0.93;;;23.20;59.10;;;;;;4860782;28;45691;-84
2023/08/14 08:29:32;;;;;;;0.77;0.77;;;23.20;59.10;;;;;;4867789;28;45317;-81
2023/08/14 08:31:58;;;;;;;0.80;0.80;;;23.30;59.70;;;;;;4861445;28;45173;-81
2023/08/14 08:34:23;;;;;;;1.10;1.00;;;23.30;59.20;;;;;;4878455;28;45461;-82
2023/08/14 08:36:49;;;;;;;1.20;0.88;;;23.20;59.10;;;;;;4904438;28;45316;-82
2023/08/14 08:39:14;;;;;;;1.05;0.95;;;23.30;59.10;;;;;;4890900;28;44978;-82
2023/08/14 08:41:43;;;;;;;1.40;0.93;;;23.30;59.10;;;;;;4890196;28;45453;-81
2023/08/14 08:44:18;;;;;;;0.75;0.75;;;23.30;59.10;;;;;;4865226;28;46839;-81
2023/08/14 08:46:50;;;;;;;1.50;1.10;;;23.30;59.10;;;;;;4889466;28;45198;-84
2023/08/14 08:49:16;;;;;;;1.67;1.10;;;23.30;59.10;;;;;;4865904;28;44689;-82
2023/08/14 08:51:42;;;;;;;0.80;0.80;;;23.30;59.10;;;;;;4888515;28;45301;-84
2023/08/14 08:54:07;;;;;;;1.45;1.17;;;23.30;59.10;;;;;;4862997;28;45302;-83
2023/08/14 08:56:34;;;;;;;1.38;0.90;;;23.30;59.10;;;;;;4875749;28;45488;-81
2023/08/14 08:58:59;;;;;;;1.27;1.05;;;23.30;59.20;;;;;;4861618;28;44936;-81
2023/08/14 09:01:25;;;;;;;1.30;1.20;;;23.30;59.10;;;;;;4860512;28;45277;-82
2023/08/14 09:03:51;;;;;;;0.88;0.88;;;23.30;59.10;;;;;;4893970;28;46855;-82
2023/08/14 09:06:17;;;;;;;1.35;1.00;;;23.30;59.10;;;;;;4890349;28;45658;-82
2023/08/14 09:08:42;;;;;;;0.98;0.90;;;23.30;59.10;;;;;;4911311;28;45189;-83
2023/08/14 09:11:08;;;;;;;0.88;0.88;;;23.30;59.10;;;;;;4878050;28;45250;-82
2023/08/14 09:13:34;;;;;;;0.80;0.80;;;23.30;59.10;;;;;;4878300;28;45620;-83
2023/08/14 09:16:00;;;;;;;1.55;0.90;;;23.30;59.10;;;;;;4860336;28;45005;-85
2023/08/14 09:18:25;;;;;;;0.90;0.90;;;23.30;59.10;;;;;;4881269;28;45059;-82
2023/08/14 09:20:51;;;;;;;1.20;1.10;;;23.30;59.10;;;;;;4890979;28;44722;-84
2023/08/14 09:23:16;;;;;;;2.40;0.95;;;23.30;59.10;;;;;;4869833;28;47500;-81
2023/08/14 09:25:45;;;;;;;1.48;1.15;;;23.30;59.10;;;;;;4895341;28;45238;-82
2023/08/14 09:28:11;;;;;;;1.30;1.00;;;23.30;59.10;;;;;;4877337;28;45274;-84
2023/08/14 09:30:37;;;;;;;1.05;0.95;;;23.30;59.10;;;;;;4904719;28;45257;-82
2023/08/14 09:33:10;;;;;;;1.10;1.10;;;23.30;59.10;;;;;;4876165;28;45549;-84
2023/08/14 09:35:36;;;;;;;0.80;0.80;;;23.30;59.10;;;;;;4879999;29;44826;-82
2023/08/14 09:38:01;;;;;;;1.33;1.20;;;23.30;59.10;;;;;;4881037;28;46180;-83
2023/08/14 09:40:27;;;;;;;0.88;0.88;;;23.30;59.40;;;;;;4893842;28;45273;-84
2023/08/14 09:42:54;;;;;;;1.10;1.00;;;23.30;59.10;;;;;;4879953;28;47354;-82
2023/08/14 09:45:27;;;;;;;0.70;0.70;;;23.30;59.10;;;;;;4861591;28;45068;-84
2023/08/14 09:48:00;;;;;;;0.75;0.75;;;23.30;59.10;;;;;;4861926;28;45457;-83
2023/08/14 09:50:29;;;;;;;0.63;0.63;;;23.30;59.10;;;;;;4892584;28;45791;-82
2023/08/14 09:52:59;;;;;;;0.93;0.90;;;23.30;59.10;;;;;;4913836;28;45554;-83
2023/08/14 09:55:26;;;;;;;1.60;1.10;;;23.30;59.10;;;;;;4894655;28;45527;-83
2023/08/14 09:57:53;;;;;;;1.20;0.90;;;23.30;59.10;;;;;;4880393;28;45398;-84
2023/08/14 10:00:22;;;;;;;1.67;0.90;;;23.40;59.10;;;;;;4888390;28;45174;-82
2023/08/14 10:02:47;;;;;;;0.88;0.70;;;23.30;59.10;;;;;;4876563;29;45483;-83
2023/08/14 10:05:15;;;;;;;1.15;1.05;;;23.30;59.10;;;;;;4849903;28;45199;-85
2023/08/14 10:07:41;;;;;;;1.15;1.05;;;23.30;59.10;;;;;;4862537;28;45517;-85
2023/08/14 10:10:11;;;;;;;1.30;1.10;;;23.30;59.10;;;;;;4892095;28;45266;-86
2023/08/14 10:12:40;;;;;;;1.05;0.80;;;23.40;59.10;;;;;;4866177;29;48113;-83
2023/08/14 10:15:16;;;;;;;1.60;0.98;;;23.30;59.10;;;;;;4896353;28;45214;-84
2023/08/14 10:17:59;;;;;;;1.27;0.80;;;23.30;59.10;;;;;;4881498;28;45313;-83
2023/08/14 10:20:25;;;;;;;;;;;23.40;59.10;;;;;;4867369;28;45270;-83
2023/08/14 10:22:54;;;;;;;0.85;0.82;;;23.30;59.30;;;;;;4883704;28;45938;-86
2023/08/14 10:25:22;;;;;;;1.10;1.00;;;23.30;59.20;;;;;;4881353;28;45470;-84
2023/08/14 10:27:51;;;;;;;1.02;0.88;;;23.40;59.20;;;;;;4880944;28;45691;-82
2023/08/14 10:30:22;;;;;;;1.15;0.90;;;23.40;59.20;;;;;;4870303;28;45215;-82
2023/08/14 10:32:48;;;;;;;0.93;0.85;;;23.30;59.10;;;;;;4881999;28;46653;-83
2023/08/14 10:35:14;;;;;;;0.95;0.85;;;23.30;59.10;;;;;;4864299;28;45452;-83
2023/08/14 10:37:47;;;;;;;1.40;1.10;;;23.30;59.10;;;;;;4895074;28;45320;-82
2023/08/14 10:40:14;;;;;;;1.08;0.90;;;23.40;59.20;;;;;;4878376;28;45410;-83
2023/08/14 10:42:46;;;;;;;1.00;0.90;;;23.30;59.10;;;;;;4907588;28;46864;-84
2023/08/14 10:45:17;;;;;;;1.00;0.90;;;23.40;59.20;;;;;;4887292;28;44775;-85
2023/08/14 10:47:43;;;;;;;0.85;0.85;;;23.40;59.20;;;;;;4878270;28;45209;-82
2023/08/14 10:50:18;;;;;;;1.00;0.88;;;23.40;59.20;;;;;;4876842;28;45630;-82
2023/08/14 10:52:48;;;;;;;0.95;0.90;;;23.40;59.20;;;;;;4880391;28;45431;-82
2023/08/14 10:55:16;;;;;;;1.48;0.90;;;23.40;59.20;;;;;;4874449;28;44772;-84
2023/08/14 10:57:41;;;;;;;0.82;0.82;;;23.40;59.20;;;;;;4879372;28;44985;-83
2023/08/14 11:00:21;;;;;;;1.20;1.00;;;23.40;59.20;;;;;;4874728;28;45525;-83
2023/08/14 11:03:05;;;;;;;1.10;1.00;;;23.40;59.20;;;;;;4880032;28;46709;-81
2023/08/14 11:05:38;;;;;;;0.93;0.80;;;23.40;59.80;;;;;;4886500;28;45767;-80
2023/08/14 11:08:08;;;;;;;0.98;0.98;;;23.40;59.20;;;;;;4901019;28;45030;-81
2023/08/14 11:10:34;;;;;;;0.85;0.85;;;23.40;59.20;;;;;;4897635;28;45533;-81
2023/08/14 11:13:00;;;;;;;1.05;0.95;;;23.40;59.20;;;;;;4871351;28;46616;-82
2023/08/14 11:15:25;;;;;;;0.80;0.80;;;23.40;59.20;;;;;;4875889;29;45323;-83
2023/08/14 11:17:51;;;;;;;1.15;0.80;;;23.40;59.20;;;;;;4881102;28;44804;-82
2023/08/14 11:20:17;;;;;;;0.98;0.95;;;23.50;59.20;;;;;;4876677;28;45505;-81
2023/08/14 11:22:44;;;;;;;0.80;0.80;;;23.50;59.20;;;;;;4887527;28;48286;-82
2023/08/14 11:25:11;;;;;;;1.38;1.15;;;23.50;59.20;;;;;;4896625;28;45671;-85
2023/08/14 11:27:37;;;;;;;1.13;0.98;;;23.50;59.20;;;;;;4896655;28;45367;-82
2023/08/14 11:30:11;;;;;;;1.05;0.98;;;23.50;59.20;;;;;;4894501;28;45348;-85
2023/08/14 11:32:37;;;;;;;1.08;0.98;;;23.50;59.30;;;;;;4880361;28;45999;-81
2023/08/14 11:35:06;;;;;;;0.98;0.88;;;23.50;59.20;;;;;;4899502;28;45192;-86
2023/08/14 11:37:32;;;;;;;1.30;1.00;;;23.50;59.30;;;;;;4857898;28;45450;-82
2023/08/14 11:40:06;;;;;;;0.85;0.80;;;23.50;59.20;;;;;;4881973;28;45116;-83
2023/08/14 11:42:33;;;;;;;0.90;0.90;;;23.50;59.30;;;;;;4851189;28;46610;-82
2023/08/14 11:45:03;;;;;;;1.02;0.90;;;23.50;59.30;;;;;;4882881;28;45379;-82
2023/08/14 11:47:36;;;;;;;0.98;0.93;;;23.50;59.30;;;;;;4880081;28;44644;-82
2023/08/14 11:50:09;;;;;;;1.00;0.95;;;23.50;59.30;;;;;;4880372;28;45469;-82
2023/08/14 11:52:36;;;;;;;1.13;1.02;;;23.50;59.30;;;;;;4873404;28;46764;-83
2023/08/14 11:55:04;;;;;;;0.75;0.70;;;23.50;59.30;;;;;;4899258;28;45789;-83
2023/08/14 11:57:31;;;;;;;0.90;0.75;;;23.50;59.30;;;;;;4871285;28;45397;-83
2023/08/14 11:59:57;;;;;;;0.82;0.80;;;23.50;59.30;;;;;;4884485;29;45014;-83
2023/08/14 12:02:24;;;;;;;1.23;0.95;;;23.50;59.30;;;;;;4876962;28;47640;-82
2023/08/14 12:04:53;;;;;;;0.90;0.90;;;23.50;59.30;;;;;;4883603;28;45565;-82
2023/08/14 12:07:22;;;;;;;1.00;1.00;;;23.50;59.30;;;;;;4870487;28;44831;-85
2023/08/14 12:09:48;;;;;;;0.85;0.85;;;23.50;59.30;;;;;;4884529;28;45037;-82
2023/08/14 12:12:14;;;;;;;0.80;0.80;;;23.50;59.30;;;;;;4880548;28;47813;-82
2023/08/14 12:14:41;;;;;;;1.58;0.90;;;23.50;59.40;;;;;;4881014;29;45290;-81
2023/08/14 12:17:09;;;;;;;1.30;0.90;;;23.50;59.40;;;;;;4907054;28;45444;-82
2023/08/14 12:19:35;;;;;;;0.90;0.90;;;23.50;59.30;;;;;;4854782;28;45166;-81
2023/08/14 12:22:01;;;;;;;1.13;0.85;;;23.50;59.30;;;;;;4875339;28;48145;-85
2023/08/14 12:24:26;;;;;;;1.05;0.90;;;23.50;59.40;;;;;;4884556;28;45268;-82
2023/08/14 12:26:52;;;;;;;1.40;1.00;;;23.50;59.40;;;;;;4889970;28;44940;-86
2023/08/14 12:29:18;;;;;;;1.08;1.00;;;23.50;59.40;;;;;;4893130;28;45352;-84
2023/08/14 12:31:44;;;;;;;1.05;0.95;;;23.50;59.40;;;;;;4884873;28;45781;-83
2023/08/14 12:34:10;;;;;;;1.20;1.10;;;23.50;59.40;;;;;;4874609;28;45653;-83
2023/08/14 12:36:35;;;;;;;1.23;1.08;;;23.60;59.50;;;;;;4890361;28;45677;-83
2023/08/14 12:39:01;;;;;;;1.05;0.95;;;23.60;59.50;;;;;;4892373;28;45592;-85
2023/08/14 12:41:27;;;;;;;1.17;0.88;;;23.50;59.50;;;;;;4860158;29;46760;-82
2023/08/14 12:43:53;;;;;;;1.10;0.93;;;23.50;59.50;;;;;;4889675;28;46134;-83
2023/08/14 12:46:18;;;;;;;1.10;0.88;;;23.50;59.60;;;;;;4871707;28;45563;-83
2023/08/14 12:48:44;;;;;;;1.13;1.02;;;23.50;59.60;;;;;;4877581;28;45471;-83
2023/08/14 12:51:11;;;;;;;1.73;1.15;;;23.60;59.60;;;;;;4877342;28;48141;-83
2023/08/14 12:53:37;;;;;;;1.08;0.90;;;23.60;59.60;;;;;;4880840;28;45383;-82
2023/08/14 12:56:03;;;;;;;1.38;1.20;;;23.60;59.60;;;;;;4876596;28;45556;-85
2023/08/14 12:58:28;;;;;;;1.20;0.95;;;23.60;59.60;;;;;;4877718;28;46079;-83
2023/08/14 13:00:54;;;;;;;1.75;0.90;;;23.60;59.70;;;;;;4867707;28;46096;-84
2023/08/14 13:03:19;;;;;;;0.80;0.75;;;23.60;59.70;;;;;;4878218;28;45337;-83
2023/08/14 13:05:45;;;;;;;1.05;0.95;;;23.60;59.70;;;;;;4877508;28;45596;-83
2023/08/14 13:08:11;;;;;;;1.02;0.80;;;23.60;59.70;;;;;;4878583;28;45506;-84
2023/08/14 13:10:36;;;;;;;1.55;0.93;;;23.60;59.70;;;;;;4859017;28;47462;-82
2023/08/14 13:13:02;;;;;;;1.45;1.00;;;23.60;59.70;;;;;;4909673;28;45579;-83
2023/08/14 13:15:28;;;;;;;0.70;0.70;;;23.60;59.70;;;;;;4875136;28;45026;-83
2023/08/14 13:17:54;;;;;;;0.90;0.90;;;23.60;59.70;;;;;;4879086;28;44751;-82
2023/08/14 13:20:19;;;;;;;1.70;1.00;;;23.60;59.70;;;;;;4878544;28;46380;-82
2023/08/14 13:22:45;;;;;;;1.00;0.95;;;23.60;59.70;;;;;;4878339;28;45763;-81
2023/08/14 13:25:10;;;;;;;0.80;0.80;;;23.60;59.60;;;;;;4890579;28;45322;-82
2023/08/14 13:27:36;;;;;;;1.77;1.00;;;23.60;59.70;;;;;;4893676;28;45656;-82
2023/08/14 13:30:02;;;;;;;1.35;0.90;;;23.60;59.80;;;;;;4879545;28;46348;-84
2023/08/14 13:32:46;;;;;;;1.20;0.98;;;23.60;59.80;;;;;;4867930;29;45434;-84
2023/08/14 13:35:12;;;;;;;1.48;1.08;;;23.60;59.80;;;;;;4873192;28;46005;-86
2023/08/14 13:37:38;;;;;;;0.80;0.80;;;23.60;59.80;;;;;;4868392;28;45382;-82
2023/08/14 13:40:07;;;;;;;1.67;1.25;;;23.60;59.80;;;;;;4877333;28;46746;-87
2023/08/14 13:42:33;;;;;;;0.80;0.80;;;23.60;59.90;;;;;;4868118;28;45883;-82
2023/08/14 13:44:58;;;;;;;0.90;0.90;;;23.60;59.70;;;;;;4882184;28;44652;-84
2023/08/14 13:47:24;;;;;;;1.13;0.95;;;23.60;59.80;;;;;;4876570;28;45281;-83
2023/08/14 13:49:50;;;;;;;0.98;0.80;;;23.60;59.90;;;;;;4861761;28;46521;-83
2023/08/14 13:52:15;;;;;;;0.90;0.90;;;23.60;59.80;;;;;;4863583;29;45202;-81
2023/08/14 13:54:42;;;;;;;0.80;0.80;;;23.60;59.80;;;;;;4896311;28;45346;-82
2023/08/14 13:57:07;;;;;;;0.80;0.80;;;23.60;59.80;;;;;;4892973;28;45362;-82
2023/08/14 13:59:33;;;;;;;1.30;1.10;;;23.60;59.90;;;;;;4878961;28;45972;-81
2023/08/14 14:01:59;;;;;;;0.98;0.90;;;23.60;59.90;;;;;;4887861;28;45725;-83
2023/08/14 14:04:24;;;;;;;1.15;0.88;;;23.70;59.90;;;;;;4892353;28;46446;-84
2023/08/14 14:06:50;;;;;;;0.85;0.85;;;23.70;59.90;;;;;;4885324;28;45540;-85
2023/08/14 14:09:15;;;;;;;1.10;0.98;;;23.60;59.90;;;;;;4902690;28;46935;-81
2023/08/14 14:11:41;;;;;;;1.60;0.90;;;23.60;59.90;;;;;;4858135;29;44951;-81
2023/08/14 14:14:06;;;;;;;0.88;0.85;;;23.60;59.90;;;;;;4861230;29;45964;-82
2023/08/14 14:16:54;;;;;;;1.08;1.00;;;23.60;59.90;;;;;;4844333;29;45749;-83
2023/08/14 14:19:19;;;;;;;2.05;1.02;;;23.70;60.10;;;;;;4875983;29;45610;-83
2023/08/14 14:21:45;;;;;;;1.08;0.98;;;23.60;59.90;;;;;;4888014;28;45574;-82
2023/08/14 14:24:11;;;;;;;1.23;1.00;;;23.60;60.00;;;;;;4891248;28;45397;-83
2023/08/14 14:26:36;;;;;;;1.10;0.90;;;23.70;60.00;;;;;;4857929;29;45675;-81
2023/08/14 14:29:02;;;;;;;1.30;1.00;;;23.70;60.00;;;;;;4891245;28;46465;-82
2023/08/14 14:31:28;;;;;;;1.10;0.85;;;23.60;60.00;;;;;;4855397;29;45484;-84
2023/08/14 14:33:53;;;;;;;1.30;1.20;;;23.70;60.10;;;;;;4877845;29;45579;-82
2023/08/14 14:36:19;;;;;;;1.08;0.82;;;23.70;60.10;;;;;;4861904;29;45381;-81
2023/08/14 14:38:47;;;;;;;0.90;0.90;;;23.70;60.10;;;;;;4879887;29;46015;-84
2023/08/14 14:41:12;;;;;;;0.80;0.80;;;23.70;60.90;;;;;;4875839;29;45353;-83
2023/08/14 14:43:39;;;;;;;1.20;0.85;;;23.70;60.10;;;;;;4862145;29;44944;-82
2023/08/14 14:46:05;;;;;;;1.02;0.90;;;23.70;60.10;;;;;;4874104;29;45516;-80
2023/08/14 14:48:30;;;;;;;1.35;1.15;;;23.70;60.20;;;;;;4893391;28;45659;-81
2023/08/14 14:50:56;;;;;;;1.50;1.00;;;23.70;60.10;;;;;;4861052;29;45321;-82
2023/08/14 14:53:21;;;;;;;0.95;0.80;;;23.70;60.20;;;;;;4845281;29;45541;-81
2023/08/14 14:55:47;;;;;;;1.23;1.10;;;23.70;60.20;;;;;;4876343;29;45218;-81
2023/08/14 14:58:13;;;;;;;1.33;1.10;;;23.70;60.20;;;;;;4874833;29;45169;-85
2023/08/14 15:00:38;;;;;;;1.58;1.20;;;23.70;60.90;;;;;;4873715;29;45324;-81
2023/08/14 15:03:04;;;;;;;1.10;1.00;;;23.70;60.20;;;;;;4879499;28;45104;-83
2023/08/14 15:05:30;;;;;;;1.15;1.05;;;23.70;60.20;;;;;;4893752;28;44807;-81
2023/08/14 15:07:56;;;;;;;2.85;1.00;;;23.70;60.60;;;;;;4909744;28;45167;-81
2023/08/14 15:10:22;;;;;;;1.05;0.88;;;23.70;60.20;;;;;;4889663;28;44637;-82
2023/08/14 15:12:48;;;;;;;1.00;0.90;;;23.70;60.20;;;;;;4879965;28;45148;-81
2023/08/14 15:15:13;;;;;;;1.60;1.10;;;23.70;60.10;;;;;;4878659;28;45306;-84
2023/08/14 15:17:39;;;;;;;1.50;1.00;;;23.70;60.20;;;;;;4864362;28;45466;-82
2023/08/14 15:20:09;;;;;;;1.10;0.93;;;23.70;60.20;;;;;;4894899;28;44946;-83
2023/08/14 15:22:36;;;;;;;1.10;1.00;;;23.70;60.20;;;;;;4896432;28;46118;-82
2023/08/14 15:25:02;;;;;;;1.00;0.95;;;23.70;60.20;;;;;;4893403;28;46089;-80
2023/08/14 15:27:30;;;;;;;1.02;0.98;;;23.70;60.20;;;;;;4862803;28;46179;-81
2023/08/14 15:29:55;;;;;;;0.80;0.80;;;23.70;60.20;;;;;;4878853;28;45694;-81
2023/08/14 15:32:21;;;;;;;0.90;0.80;;;23.70;60.20;;;;;;4908469;28;45323;-83
2023/08/14 15:34:46;;;;;;;0.85;0.80;;;23.70;60.30;;;;;;4865803;28;45528;-81
2023/08/14 15:37:12;;;;;;;1.15;1.05;;;23.70;60.20;;;;;;4879919;28;45389;-81
2023/08/14 15:39:38;;;;;;;1.20;0.90;;;23.70;60.20;;;;;;4879263;28;45692;-82
2023/08/14 15:42:05;;;;;;;0.80;0.80;;;23.70;61.10;;;;;;4873113;28;46042;-82
2023/08/14 15:44:31;;;;;;;1.17;0.90;;;23.70;60.20;;;;;;4879096;28;45473;-81